createdAt,value
2019-06-26T00:01:10.342Z,20.52
2019-06-26T00:03:42.710Z,20.62
2019-06-26T00:06:14.920Z,20.64
2019-06-26T00:08:47.350Z,20.62
2019-06-26T00:11:19.389Z,20.66
2019-06-26T00:13:51.770Z,20.78
2019-06-26T00:16:24.111Z,20.79
2019-06-26T00:18:56.511Z,20.84
2019-06-26T00:21:29.869Z,20.81
2019-06-26T00:24:02.358Z,20.79
2019-06-26T00:26:34.842Z,20.86
2019-06-26T00:29:07.288Z,20.86
2019-06-26T00:31:39.540Z,20.84
2019-06-26T00:34:12.089Z,20.85
2019-06-26T00:36:44.327Z,20.71
2019-06-26T00:39:16.478Z,20.61
2019-06-26T00:41:48.733Z,20.55
2019-06-26T00:44:21.145Z,20.48
2019-06-26T00:46:53.437Z,20.52
2019-06-26T00:49:25.872Z,20.49
2019-06-26T00:51:58.386Z,20.40
2019-06-26T00:54:30.690Z,20.32
2019-06-26T00:57:03.103Z,20.26
2019-06-26T00:59:35.697Z,20.23
2019-06-26T01:02:08.362Z,20.11
2019-06-26T01:04:42.990Z,20.14
2019-06-26T01:07:15.422Z,20.07
2019-06-26T01:09:47.897Z,20.05
2019-06-26T01:12:20.502Z,19.99
2019-06-26T01:14:52.980Z,20.00
2019-06-26T01:17:25.779Z,20.13
2019-06-26T01:19:58.190Z,20.10
2019-06-26T01:22:30.660Z,20.18
2019-06-26T01:25:02.937Z,20.11
2019-06-26T01:27:37.008Z,20.08
2019-06-26T01:30:09.621Z,19.99
2019-06-26T01:32:42.357Z,19.99
2019-06-26T01:35:14.716Z,20.03
2019-06-26T01:37:46.853Z,19.98
2019-06-26T01:40:20.589Z,20.05
2019-06-26T01:42:53.162Z,19.91
2019-06-26T01:45:25.692Z,19.74
2019-06-26T01:47:57.991Z,19.79
2019-06-26T01:50:30.492Z,19.87
2019-06-26T01:53:02.685Z,19.79
2019-06-26T01:55:34.832Z,19.77
2019-06-26T01:58:07.656Z,19.74
2019-06-26T02:00:39.999Z,19.73
2019-06-26T02:03:12.327Z,19.81
2019-06-26T02:05:44.492Z,19.84
2019-06-26T02:08:16.881Z,19.81
2019-06-26T02:10:49.217Z,19.83
2019-06-26T02:13:21.454Z,19.76
2019-06-26T02:15:53.891Z,19.75
2019-06-26T02:18:48.642Z,19.81
2019-06-26T02:21:21.397Z,19.67
2019-06-26T02:23:53.890Z,19.62
2019-06-26T02:26:26.255Z,19.66
2019-06-26T02:28:58.839Z,19.80
2019-06-26T02:31:31.398Z,19.78
2019-06-26T02:34:03.955Z,19.79
2019-06-26T02:36:36.341Z,19.72
2019-06-26T02:39:09.762Z,19.75
2019-06-26T02:41:42.359Z,19.77
2019-06-26T02:44:14.587Z,19.71
2019-06-26T02:46:47.129Z,19.71
2019-06-26T02:49:19.829Z,19.65
2019-06-26T02:51:51.679Z,19.70
2019-06-26T02:54:23.938Z,19.71
2019-06-26T02:56:56.587Z,19.71
2019-06-26T02:59:28.977Z,19.64
2019-06-26T03:02:00.914Z,19.64
2019-06-26T03:04:32.899Z,19.65
2019-06-26T03:07:05.102Z,19.63
2019-06-26T03:09:37.390Z,19.64
2019-06-26T03:12:09.663Z,19.68
2019-06-26T03:14:41.777Z,19.67
2019-06-26T03:17:13.782Z,19.66
2019-06-26T03:19:47.095Z,19.66
2019-06-26T03:22:19.473Z,19.74
2019-06-26T03:24:51.693Z,19.85
2019-06-26T03:27:24.010Z,19.84
2019-06-26T03:29:59.907Z,19.79
2019-06-26T03:32:32.181Z,19.79
2019-06-26T03:35:04.512Z,19.74
2019-06-26T03:37:36.707Z,19.69
2019-06-26T03:40:09.245Z,19.59
2019-06-26T03:42:41.500Z,19.64
2019-06-26T03:45:25.103Z,19.64
2019-06-26T03:47:48.594Z,19.70
2019-06-26T03:50:20.959Z,19.75
2019-06-26T03:52:53.164Z,19.81
2019-06-26T03:55:25.608Z,19.95
2019-06-26T03:57:57.849Z,20.07
2019-06-26T04:00:40.115Z,20.20
2019-06-26T04:03:12.827Z,20.40
2019-06-26T04:05:45.038Z,20.45
2019-06-26T04:08:16.941Z,20.45
2019-06-26T04:10:49.264Z,20.45
2019-06-26T04:13:21.620Z,20.34
2019-06-26T04:15:54.051Z,20.31
2019-06-26T04:18:26.387Z,20.28
2019-06-26T04:20:58.594Z,20.33
2019-06-26T04:23:31.021Z,20.37
2019-06-26T04:26:02.911Z,20.43
2019-06-26T04:28:35.133Z,20.52
2019-06-26T04:31:07.182Z,20.57
2019-06-26T04:33:39.587Z,20.58
2019-06-26T04:36:13.017Z,20.46
2019-06-26T04:38:45.471Z,20.58
2019-06-26T04:41:17.667Z,20.78
2019-06-26T04:43:49.803Z,20.96
2019-06-26T04:46:21.945Z,21.17
2019-06-26T04:48:54.227Z,21.40
2019-06-26T04:51:26.303Z,21.53
2019-06-26T04:53:58.188Z,21.52
2019-06-26T04:56:30.859Z,21.56
2019-06-26T04:59:03.018Z,21.66
2019-06-26T05:01:35.290Z,21.71
2019-06-26T05:04:07.439Z,21.94
2019-06-26T05:06:39.749Z,21.94
2019-06-26T05:09:11.752Z,21.97
2019-06-26T05:11:43.972Z,22.09
2019-06-26T05:14:16.178Z,22.18
2019-06-26T05:16:48.290Z,22.39
2019-06-26T05:19:20.709Z,22.39
2019-06-26T05:21:52.934Z,22.48
2019-06-26T05:24:25.217Z,22.61
2019-06-26T05:26:57.289Z,22.66
2019-06-26T05:29:29.412Z,22.67
2019-06-26T05:32:01.722Z,22.74
2019-06-26T05:34:34.066Z,22.72
2019-06-26T05:37:06.223Z,22.75
2019-06-26T05:39:38.354Z,22.71
2019-06-26T05:42:10.487Z,22.71
2019-06-26T05:44:42.590Z,22.72
2019-06-26T05:47:17.954Z,22.78
2019-06-26T05:49:51.418Z,22.78
2019-06-26T05:52:23.659Z,22.81
2019-06-26T05:54:55.779Z,22.73
2019-06-26T05:57:27.950Z,22.71
2019-06-26T06:00:00.077Z,22.70
2019-06-26T06:02:32.060Z,22.65
2019-06-26T06:05:04.548Z,22.57
2019-06-26T06:07:36.759Z,22.65
2019-06-26T06:10:09.279Z,22.58
2019-06-26T06:12:41.464Z,22.55
2019-06-26T06:15:14.207Z,22.59
2019-06-26T06:17:46.368Z,22.59
2019-06-26T06:20:24.617Z,22.65
2019-06-26T06:22:56.693Z,22.63
2019-06-26T06:25:28.791Z,22.66
2019-06-26T06:28:01.113Z,22.76
2019-06-26T06:30:33.404Z,22.75
2019-06-26T06:33:05.431Z,22.78
2019-06-26T06:35:37.786Z,22.86
2019-06-26T06:38:10.066Z,22.95
2019-06-26T06:40:43.264Z,23.07
2019-06-26T06:43:15.855Z,23.20
2019-06-26T06:45:48.077Z,23.33
2019-06-26T06:48:20.410Z,23.41
2019-06-26T06:50:52.885Z,23.73
2019-06-26T06:53:24.927Z,23.84
2019-06-26T06:55:56.991Z,24.03
2019-06-26T06:58:30.221Z,24.26
2019-06-26T07:01:02.614Z,24.26
2019-06-26T07:03:34.761Z,24.10
2019-06-26T07:06:07.183Z,24.06
2019-06-26T07:08:39.322Z,24.38
2019-06-26T07:11:11.487Z,24.28
2019-06-26T07:13:43.758Z,24.28
2019-06-26T07:16:16.907Z,24.29
2019-06-26T07:18:49.177Z,24.63
2019-06-26T07:21:21.492Z,24.83
2019-06-26T07:23:53.577Z,24.91
2019-06-26T07:26:25.753Z,24.93
2019-06-26T07:28:57.985Z,24.71
2019-06-26T07:31:31.327Z,24.50
2019-06-26T07:34:03.585Z,24.42
2019-06-26T07:36:35.979Z,24.27
2019-06-26T07:39:09.255Z,24.01
2019-06-26T07:41:41.957Z,23.91
2019-06-26T07:44:14.242Z,23.90
2019-06-26T07:46:46.559Z,23.72
2019-06-26T07:49:18.655Z,23.57
2019-06-26T07:51:50.858Z,23.50
2019-06-26T07:54:23.367Z,23.55
2019-06-26T07:56:55.852Z,23.53
2019-06-26T07:59:29.126Z,23.58
2019-06-26T08:02:01.358Z,23.59
2019-06-26T08:04:33.496Z,23.75
2019-06-26T08:07:05.701Z,23.99
2019-06-26T08:09:37.919Z,24.09
2019-06-26T08:12:10.207Z,24.13
2019-06-26T08:14:42.833Z,24.09
2019-06-26T08:17:14.888Z,24.23
2019-06-26T08:19:47.202Z,24.23
2019-06-26T08:22:19.544Z,24.38
2019-06-26T08:24:51.542Z,24.52
2019-06-26T08:27:23.533Z,24.83
2019-06-26T08:29:55.835Z,25.04
2019-06-26T08:32:28.268Z,25.20
2019-06-26T08:35:00.350Z,25.57
2019-06-26T08:37:32.874Z,25.95
2019-06-26T08:40:05.290Z,26.05
2019-06-26T08:42:37.629Z,26.01
2019-06-26T08:45:10.061Z,25.97
2019-06-26T08:47:42.203Z,25.88
2019-06-26T08:50:15.058Z,25.74
2019-06-26T08:52:46.234Z,25.60
2019-06-26T08:55:19.160Z,25.30
2019-06-26T08:57:51.733Z,25.38
2019-06-26T09:00:24.393Z,25.39
2019-06-26T09:02:56.596Z,25.67
2019-06-26T09:05:28.566Z,25.95
2019-06-26T09:08:00.995Z,26.00
2019-06-26T09:10:33.163Z,26.08
2019-06-26T09:13:05.437Z,26.06
2019-06-26T09:15:37.534Z,26.12
2019-06-26T09:18:09.617Z,26.44
2019-06-26T09:20:42.024Z,26.25
2019-06-26T09:23:14.306Z,26.36
2019-06-26T09:25:46.614Z,26.49
2019-06-26T09:28:18.707Z,26.56
2019-06-26T09:30:50.945Z,26.86
2019-06-26T09:33:23.290Z,26.93
2019-06-26T09:35:55.752Z,27.01
2019-06-26T09:38:28.103Z,26.93
2019-06-26T09:41:00.302Z,26.89
2019-06-26T09:43:32.544Z,26.93
2019-06-26T09:46:04.843Z,27.05
2019-06-26T09:48:52.181Z,26.84
2019-06-26T09:51:13.892Z,26.84
2019-06-26T09:53:47.847Z,26.65
2019-06-26T09:56:20.138Z,26.82
2019-06-26T09:58:52.522Z,26.97
2019-06-26T10:01:25.238Z,26.90
2019-06-26T10:03:56.138Z,26.69
2019-06-26T10:06:28.220Z,26.93
2019-06-26T10:09:00.492Z,27.19
2019-06-26T10:11:34.343Z,27.31
2019-06-26T10:14:06.888Z,27.13
2019-06-26T10:16:38.877Z,26.96
2019-06-26T10:19:11.270Z,27.00
2019-06-26T10:21:43.275Z,27.16
2019-06-26T10:24:15.541Z,27.28
2019-06-26T10:26:47.892Z,27.32
2019-06-26T10:29:20.240Z,27.55
2019-06-26T10:31:52.372Z,27.65
2019-06-26T10:34:24.477Z,27.63
2019-06-26T10:36:56.997Z,27.39
2019-06-26T10:39:29.057Z,27.38
2019-06-26T10:42:01.316Z,27.42
2019-06-26T10:44:33.588Z,27.67
2019-06-26T10:47:06.152Z,27.93
2019-06-26T10:49:38.411Z,28.03
2019-06-26T10:52:10.575Z,27.79
2019-06-26T10:54:44.500Z,27.92
2019-06-26T10:57:16.713Z,27.47
2019-06-26T10:59:49.118Z,27.47
2019-06-26T11:02:21.339Z,27.74
2019-06-26T11:04:53.670Z,27.41
2019-06-26T11:07:26.127Z,27.58
2019-06-26T11:09:58.468Z,27.40
2019-06-26T11:12:31.324Z,27.47
2019-06-26T11:15:03.792Z,27.79
2019-06-26T11:17:36.305Z,27.85
2019-06-26T11:20:10.559Z,28.18
2019-06-26T11:22:42.750Z,27.95
2019-06-26T11:25:15.190Z,28.07
2019-06-26T11:27:47.923Z,28.05
2019-06-26T11:30:19.080Z,28.56
2019-06-26T11:32:51.735Z,28.75
2019-06-26T11:35:24.199Z,28.81
2019-06-26T11:37:56.600Z,29.45
2019-06-26T11:40:29.171Z,29.69
2019-06-26T11:43:01.551Z,30.07
2019-06-26T11:45:33.752Z,30.23
2019-06-26T11:48:06.194Z,30.59
2019-06-26T11:50:38.657Z,30.29
2019-06-26T11:53:11.232Z,30.21
2019-06-26T11:55:43.376Z,30.26
2019-06-26T11:58:15.197Z,30.91
2019-06-26T12:00:47.438Z,30.54
2019-06-26T12:03:19.359Z,30.70
2019-06-26T12:05:52.064Z,30.85
2019-06-26T12:08:22.878Z,30.75
2019-06-26T12:10:54.928Z,30.85
2019-06-26T12:13:26.978Z,30.82
2019-06-26T12:15:59.484Z,30.56
2019-06-26T12:18:31.969Z,31.67
2019-06-26T12:21:04.334Z,31.89
2019-06-26T12:23:36.677Z,32.17
2019-06-26T12:26:08.852Z,32.04
2019-06-26T12:28:41.521Z,31.64
2019-06-26T12:31:13.682Z,30.90
2019-06-26T12:33:45.894Z,30.22
2019-06-26T12:36:18.130Z,29.75
2019-06-26T12:38:50.730Z,29.82
2019-06-26T12:41:24.407Z,30.41
2019-06-26T12:43:56.594Z,30.67
2019-06-26T12:46:29.043Z,31.12
2019-06-26T12:49:01.907Z,31.50
2019-06-26T12:51:34.541Z,31.52
2019-06-26T12:54:05.412Z,31.63
2019-06-26T12:56:37.381Z,31.97
2019-06-26T12:59:09.373Z,32.42
2019-06-26T13:01:41.726Z,32.64
2019-06-26T13:04:14.141Z,32.67
2019-06-26T13:06:46.392Z,32.70
2019-06-26T13:09:18.869Z,32.32
2019-06-26T13:11:49.628Z,32.18
2019-06-26T13:14:21.630Z,32.13
2019-06-26T13:16:53.918Z,32.15
2019-06-26T13:19:26.056Z,32.18
2019-06-26T13:22:00.004Z,31.20
2019-06-26T13:24:32.120Z,31.16
2019-06-26T13:27:04.499Z,31.49
2019-06-26T13:29:37.143Z,31.79
2019-06-26T13:32:08.024Z,31.56
2019-06-26T13:34:40.152Z,31.96
2019-06-26T13:37:12.504Z,32.17
2019-06-26T13:39:44.953Z,32.45
2019-06-26T13:42:18.501Z,32.58
2019-06-26T13:44:49.329Z,32.85
2019-06-26T13:47:21.986Z,32.74
2019-06-26T13:49:54.194Z,32.81
2019-06-26T13:52:26.409Z,32.74
2019-06-26T13:54:58.599Z,33.27
2019-06-26T13:57:31.763Z,33.26
2019-06-26T14:00:04.791Z,32.76
2019-06-26T14:02:37.369Z,33.05
2019-06-26T14:05:09.918Z,32.75
2019-06-26T14:07:42.178Z,32.26
2019-06-26T14:10:14.857Z,32.69
2019-06-26T14:12:45.611Z,32.68
2019-06-26T14:15:18.327Z,32.96
2019-06-26T14:17:50.492Z,33.19
2019-06-26T14:20:23.253Z,33.14
2019-06-26T14:22:55.655Z,32.89
2019-06-26T14:25:27.947Z,31.15
2019-06-26T14:28:00.242Z,30.94
2019-06-26T14:30:32.439Z,31.01
2019-06-26T14:33:04.607Z,31.23
2019-06-26T14:35:36.816Z,31.33
2019-06-26T14:38:08.941Z,31.19
2019-06-26T14:40:41.437Z,30.88
2019-06-26T14:43:13.503Z,30.49
2019-06-26T14:45:45.835Z,30.04
2019-06-26T14:48:18.074Z,29.87
2019-06-26T14:50:50.323Z,29.47
2019-06-26T14:53:22.661Z,29.15
2019-06-26T14:55:55.129Z,28.96
2019-06-26T14:58:27.475Z,28.83
2019-06-26T15:00:59.966Z,28.74
2019-06-26T15:03:32.154Z,28.61
2019-06-26T15:06:15.780Z,28.43
2019-06-26T15:08:38.156Z,28.18
2019-06-26T15:11:10.339Z,28.20
2019-06-26T15:13:42.378Z,27.97
2019-06-26T15:16:14.860Z,28.11
2019-06-26T15:18:47.084Z,28.11
2019-06-26T15:21:19.351Z,27.92
2019-06-26T15:23:51.681Z,27.94
2019-06-26T15:26:24.021Z,27.88
2019-06-26T15:28:56.432Z,27.97
2019-06-26T15:31:28.669Z,27.88
2019-06-26T15:34:00.846Z,27.89
2019-06-26T15:36:33.325Z,27.71
2019-06-26T15:39:06.211Z,27.44
2019-06-26T15:41:39.485Z,27.56
2019-06-26T15:44:12.137Z,27.63
2019-06-26T15:46:44.712Z,27.60
2019-06-26T15:49:16.910Z,27.52
2019-06-26T15:51:49.413Z,27.48
2019-06-26T15:54:21.611Z,27.21
2019-06-26T15:56:53.921Z,27.28
2019-06-26T15:59:26.179Z,27.21
2019-06-26T16:01:58.941Z,27.24
2019-06-26T16:04:29.762Z,27.27
2019-06-26T16:07:02.056Z,27.27
2019-06-26T16:09:35.185Z,27.08
2019-06-26T16:12:07.336Z,27.09
2019-06-26T16:14:40.066Z,27.00
2019-06-26T16:17:17.451Z,26.96
2019-06-26T16:19:49.771Z,26.97
2019-06-26T16:22:31.537Z,26.84
2019-06-26T16:24:56.178Z,26.84
2019-06-26T16:27:28.658Z,26.84
2019-06-26T16:30:00.830Z,26.81
2019-06-26T16:32:33.490Z,26.83
2019-06-26T16:35:05.885Z,26.61
2019-06-26T16:37:39.607Z,26.50
2019-06-26T16:40:12.409Z,26.52
2019-06-26T16:42:42.940Z,26.47
2019-06-26T16:45:15.769Z,26.55
2019-06-26T16:47:46.812Z,26.33
2019-06-26T16:50:19.698Z,26.45
2019-06-26T16:52:51.694Z,26.37
2019-06-26T16:55:23.849Z,26.32
2019-06-26T16:57:56.013Z,26.09
2019-06-26T17:00:28.322Z,26.03
2019-06-26T17:03:00.411Z,26.05
2019-06-26T17:05:32.383Z,25.85
2019-06-26T17:08:04.626Z,25.92
2019-06-26T17:10:36.610Z,25.83
2019-06-26T17:13:09.018Z,25.83
2019-06-26T17:15:41.203Z,25.88
2019-06-26T17:18:13.273Z,25.72
2019-06-26T17:20:45.325Z,25.67
2019-06-26T17:23:17.280Z,25.58
2019-06-26T17:25:49.436Z,25.51
2019-06-26T17:28:21.508Z,25.50
2019-06-26T17:30:53.518Z,25.48
2019-06-26T17:33:26.118Z,25.44
2019-06-26T17:35:58.013Z,25.49
2019-06-26T17:38:30.097Z,25.49
2019-06-26T17:41:02.610Z,25.39
2019-06-26T17:43:34.814Z,25.46
2019-06-26T17:46:07.313Z,25.41
2019-06-26T17:48:39.552Z,25.48
2019-06-26T17:51:11.644Z,25.56
2019-06-26T17:53:43.808Z,25.54
2019-06-26T17:56:15.818Z,25.49
2019-06-26T17:58:48.123Z,25.55
2019-06-26T18:01:20.212Z,25.58
2019-06-26T18:03:52.199Z,25.47
2019-06-26T18:06:24.132Z,25.53
2019-06-26T18:08:56.395Z,25.48
2019-06-26T18:11:29.371Z,25.48
2019-06-26T18:14:01.448Z,25.49
2019-06-26T18:16:33.658Z,25.44
2019-06-26T18:19:06.774Z,25.35
2019-06-26T18:21:38.947Z,25.40
2019-06-26T18:24:11.226Z,25.36
2019-06-26T18:26:43.473Z,25.35
2019-06-26T18:29:16.666Z,25.26
2019-06-26T18:31:48.866Z,25.24
2019-06-26T18:34:21.043Z,25.15
2019-06-26T18:36:53.016Z,25.15
2019-06-26T18:39:24.895Z,25.14
2019-06-26T18:41:57.154Z,25.10
2019-06-26T18:44:29.643Z,25.08
2019-06-26T18:47:01.860Z,25.01
2019-06-26T18:49:34.857Z,24.93
2019-06-26T18:52:07.823Z,24.90
2019-06-26T18:54:39.147Z,24.84
2019-06-26T18:57:11.394Z,24.73
2019-06-26T18:59:43.754Z,24.70
2019-06-26T19:02:15.910Z,24.70
2019-06-26T19:04:48.009Z,24.65
2019-06-26T19:07:19.964Z,24.64
2019-06-26T19:09:51.909Z,24.59
2019-06-26T19:12:24.338Z,24.48
2019-06-26T19:14:56.406Z,24.39
2019-06-26T19:17:28.774Z,24.35
2019-06-26T19:20:00.920Z,24.34
2019-06-26T19:22:32.831Z,24.34
2019-06-26T19:25:05.153Z,24.35
2019-06-26T19:27:37.297Z,24.31
2019-06-26T19:30:11.202Z,24.25
2019-06-26T19:32:43.585Z,24.10
2019-06-26T19:35:19.526Z,24.10
2019-06-26T19:37:51.687Z,24.13
2019-06-26T19:40:24.427Z,24.09
2019-06-26T19:42:58.807Z,24.05
2019-06-26T19:45:31.361Z,23.96
2019-06-26T19:48:03.341Z,23.82
2019-06-26T19:50:35.508Z,23.87
2019-06-26T19:53:07.779Z,23.81
2019-06-26T19:55:39.982Z,23.62
2019-06-26T19:58:11.974Z,23.68
2019-06-26T20:00:44.950Z,23.57
2019-06-26T20:04:09.492Z,23.49
2019-06-26T20:07:23.889Z,23.46
2019-06-26T20:09:56.051Z,23.28
2019-06-26T20:12:27.624Z,22.99
2019-06-26T20:14:59.184Z,22.96
2019-06-26T20:17:30.648Z,23.04
2019-06-26T20:20:02.091Z,22.94
2019-06-26T20:22:33.862Z,23.02
2019-06-26T20:25:05.358Z,23.02
2019-06-26T20:27:38.038Z,23.05
2019-06-26T20:30:10.303Z,23.04
2019-06-26T20:32:42.980Z,23.03
2019-06-26T20:35:14.630Z,22.99
2019-06-26T20:37:46.130Z,22.97
2019-06-26T20:40:17.798Z,22.94
2019-06-26T20:42:49.392Z,22.98
2019-06-26T20:45:21.591Z,23.03
2019-06-26T20:47:53.098Z,22.78
2019-06-26T20:50:24.596Z,22.94
2019-06-26T20:52:56.312Z,22.96
2019-06-26T20:55:27.674Z,22.65
2019-06-26T20:57:59.125Z,22.75
2019-06-26T21:00:31.680Z,22.70
2019-06-26T21:03:03.301Z,22.76
2019-06-26T21:05:35.019Z,22.85
2019-06-26T21:08:06.533Z,22.78
2019-06-26T21:10:37.971Z,22.77
2019-06-26T21:13:09.450Z,22.80
2019-06-26T21:15:40.916Z,22.81
2019-06-26T21:18:12.639Z,22.75
2019-06-26T21:20:44.085Z,22.68
2019-06-26T21:23:18.742Z,22.53
2019-06-26T21:25:49.014Z,22.39
2019-06-26T21:28:20.462Z,22.58
2019-06-26T21:30:51.865Z,22.53
2019-06-26T21:33:23.392Z,22.52
2019-06-26T21:35:54.965Z,22.30
2019-06-26T21:38:27.818Z,22.27
2019-06-26T21:40:59.391Z,22.25
2019-06-26T21:43:30.894Z,22.16
2019-06-26T21:46:02.505Z,22.16
2019-06-26T21:48:35.307Z,22.16
2019-06-26T21:51:06.864Z,22.14
2019-06-26T21:53:38.606Z,21.96
2019-06-26T21:56:28.072Z,21.79
2019-06-26T21:59:17.927Z,21.65
2019-06-26T22:02:07.567Z,21.64
2019-06-26T22:04:56.286Z,21.57
2019-06-26T22:07:46.229Z,21.52
2019-06-26T22:10:19.719Z,21.64
2019-06-26T22:12:51.599Z,21.66
2019-06-26T22:15:23.609Z,21.68
2019-06-26T22:17:55.778Z,21.65
2019-06-26T22:20:27.584Z,21.62
2019-06-26T22:22:59.600Z,21.56
2019-06-26T22:25:31.943Z,21.54
2019-06-26T22:28:03.787Z,21.46
2019-06-26T22:30:35.480Z,21.38
2019-06-26T22:33:07.430Z,21.24
2019-06-26T22:35:39.248Z,21.10
2019-06-26T22:38:11.248Z,21.00
2019-06-26T22:40:44.472Z,20.87
2019-06-26T22:43:16.747Z,20.82
2019-06-26T22:45:48.777Z,20.77
2019-06-26T22:48:21.012Z,20.73
2019-06-26T22:50:53.180Z,20.75
2019-06-26T22:53:25.221Z,20.69
2019-06-26T22:56:07.178Z,20.66
2019-06-26T22:58:31.068Z,20.67
2019-06-26T23:01:03.741Z,20.66
2019-06-26T23:03:35.928Z,20.63
2019-06-26T23:06:08.390Z,20.63
2019-06-26T23:08:40.733Z,20.74
2019-06-26T23:11:14.082Z,20.79
2019-06-26T23:13:46.304Z,20.88
2019-06-26T23:16:18.598Z,20.88
2019-06-26T23:18:50.877Z,20.73
2019-06-26T23:21:23.149Z,20.56
2019-06-26T23:23:55.439Z,20.38
2019-06-26T23:26:27.528Z,20.27
2019-06-26T23:28:59.968Z,20.16
2019-06-26T23:31:32.141Z,20.10
2019-06-26T23:34:04.803Z,20.09
2019-06-26T23:36:37.251Z,20.06
2019-06-26T23:39:09.580Z,20.05
2019-06-26T23:41:41.903Z,20.04
2019-06-26T23:44:14.290Z,20.00
2019-06-26T23:46:46.560Z,20.02
2019-06-26T23:49:19.334Z,19.97
2019-06-26T23:51:51.649Z,19.89
2019-06-26T23:54:25.156Z,19.78
2019-06-26T23:56:57.601Z,19.72
2019-06-26T23:59:30.001Z,19.64
